sensor_id;sensor_type;location;lat;lon;timestamp;temperature;humidity
7218;DHT22;3650;53.580;10.094;2022-12-07T00:00:03;6.10;96.20
7218;DHT22;3650;53.580;10.094;2022-12-07T00:02:31;6.10;96.20
7218;DHT22;3650;53.580;10.094;2022-12-07T00:04:59;6.10;96.40
7218;DHT22;3650;53.580;10.094;2022-12-07T00:07:26;6.10;96.40
7218;DHT22;3650;53.580;10.094;2022-12-07T00:09:52;6.10;96.50
7218;DHT22;3650;53.580;10.094;2022-12-07T00:12:19;6.10;96.60
7218;DHT22;3650;53.580;10.094;2022-12-07T00:14:47;6.10;96.70
7218;DHT22;3650;53.580;10.094;2022-12-07T00:17:14;6.10;96.80
7218;DHT22;3650;53.580;10.094;2022-12-07T00:19:40;6.10;96.90
7218;DHT22;3650;53.580;10.094;2022-12-07T00:22:09;6.10;97.10
7218;DHT22;3650;53.580;10.094;2022-12-07T00:24:35;6.10;97.20
7218;DHT22;3650;53.580;10.094;2022-12-07T00:27:03;6.20;97.30
7218;DHT22;3650;53.580;10.094;2022-12-07T00:29:29;6.10;97.40
7218;DHT22;3650;53.580;10.094;2022-12-07T00:31:56;6.20;97.50
7218;DHT22;3650;53.580;10.094;2022-12-07T00:34:23;6.20;97.60
7218;DHT22;3650;53.580;10.094;2022-12-07T00:36:50;6.20;97.60
7218;DHT22;3650;53.580;10.094;2022-12-07T00:39:18;6.20;97.60
7218;DHT22;3650;53.580;10.094;2022-12-07T00:41:45;6.20;97.70
7218;DHT22;3650;53.580;10.094;2022-12-07T00:44:12;6.20;97.60
7218;DHT22;3650;53.580;10.094;2022-12-07T00:46:39;6.20;97.50
7218;DHT22;3650;53.580;10.094;2022-12-07T00:49:06;6.20;97.30
7218;DHT22;3650;53.580;10.094;2022-12-07T00:51:33;6.30;97.20
7218;DHT22;3650;53.580;10.094;2022-12-07T00:54:00;6.30;97.20
7218;DHT22;3650;53.580;10.094;2022-12-07T00:56:29;6.30;97.10
7218;DHT22;3650;53.580;10.094;2022-12-07T00:58:57;6.30;97.20
7218;DHT22;3650;53.580;10.094;2022-12-07T01:01:26;6.30;97.20
7218;DHT22;3650;53.580;10.094;2022-12-07T01:03:53;6.30;97.20
7218;DHT22;3650;53.580;10.094;2022-12-07T01:06:21;6.30;97.20
7218;DHT22;3650;53.580;10.094;2022-12-07T01:08:48;6.30;97.50
7218;DHT22;3650;53.580;10.094;2022-12-07T01:11:17;6.30;97.00
7218;DHT22;3650;53.580;10.094;2022-12-07T01:13:45;6.30;97.00
7218;DHT22;3650;53.580;10.094;2022-12-07T01:16:14;6.30;97.10
7218;DHT22;3650;53.580;10.094;2022-12-07T01:18:41;6.30;97.10
7218;DHT22;3650;53.580;10.094;2022-12-07T01:21:11;6.30;97.20
7218;DHT22;3650;53.580;10.094;2022-12-07T01:23:38;6.30;97.10
7218;DHT22;3650;53.580;10.094;2022-12-07T01:26:06;6.40;97.20
7218;DHT22;3650;53.580;10.094;2022-12-07T01:28:34;6.40;97.30
7218;DHT22;3650;53.580;10.094;2022-12-07T01:31:04;6.40;97.20
7218;DHT22;3650;53.580;10.094;2022-12-07T01:33:33;6.30;97.00
7218;DHT22;3650;53.580;10.094;2022-12-07T01:36:04;6.30;97.00
7218;DHT22;3650;53.580;10.094;2022-12-07T01:38:32;6.30;96.70
7218;DHT22;3650;53.580;10.094;2022-12-07T01:41:00;6.30;96.80
7218;DHT22;3650;53.580;10.094;2022-12-07T01:43:29;6.30;96.70
7218;DHT22;3650;53.580;10.094;2022-12-07T01:45:57;6.30;96.60
7218;DHT22;3650;53.580;10.094;2022-12-07T01:48:28;6.30;96.50
7218;DHT22;3650;53.580;10.094;2022-12-07T01:50:59;6.30;96.60
7218;DHT22;3650;53.580;10.094;2022-12-07T01:53:29;6.30;96.60
7218;DHT22;3650;53.580;10.094;2022-12-07T01:55:57;6.30;96.60
7218;DHT22;3650;53.580;10.094;2022-12-07T01:58:25;6.30;96.70
7218;DHT22;3650;53.580;10.094;2022-12-07T02:00:52;6.30;96.70
7218;DHT22;3650;53.580;10.094;2022-12-07T02:03:22;6.30;96.80
7218;DHT22;3650;53.580;10.094;2022-12-07T02:05:53;6.30;96.80
7218;DHT22;3650;53.580;10.094;2022-12-07T02:08:20;6.30;96.80
7218;DHT22;3650;53.580;10.094;2022-12-07T02:10:48;6.30;96.60
7218;DHT22;3650;53.580;10.094;2022-12-07T02:13:18;6.30;96.60
7218;DHT22;3650;53.580;10.094;2022-12-07T02:16:02;6.20;96.60
7218;DHT22;3650;53.580;10.094;2022-12-07T02:18:44;6.20;96.50
7218;DHT22;3650;53.580;10.094;2022-12-07T02:21:20;6.20;96.60
7218;DHT22;3650;53.580;10.094;2022-12-07T02:24:11;6.20;96.50
7218;DHT22;3650;53.580;10.094;2022-12-07T02:27:13;6.20;96.30
7218;DHT22;3650;53.580;10.094;2022-12-07T02:29:49;6.20;96.30
7218;DHT22;3650;53.580;10.094;2022-12-07T02:32:26;6.10;96.10
7218;DHT22;3650;53.580;10.094;2022-12-07T02:34:57;6.10;96.20
7218;DHT22;3650;53.580;10.094;2022-12-07T02:37:32;6.10;96.10
7218;DHT22;3650;53.580;10.094;2022-12-07T02:40:05;6.10;96.10
7218;DHT22;3650;53.580;10.094;2022-12-07T02:42:38;6.00;96.10
7218;DHT22;3650;53.580;10.094;2022-12-07T02:45:10;6.00;96.10
7218;DHT22;3650;53.580;10.094;2022-12-07T02:47:39;6.00;96.10
7218;DHT22;3650;53.580;10.094;2022-12-07T02:50:08;6.00;96.10
7218;DHT22;3650;53.580;10.094;2022-12-07T02:52:35;6.00;96.10
7218;DHT22;3650;53.580;10.094;2022-12-07T02:55:03;6.00;96.00
7218;DHT22;3650;53.580;10.094;2022-12-07T02:57:44;6.00;95.90
7218;DHT22;3650;53.580;10.094;2022-12-07T03:00:18;5.90;95.80
7218;DHT22;3650;53.580;10.094;2022-12-07T03:02:53;5.90;95.70
7218;DHT22;3650;53.580;10.094;2022-12-07T03:05:32;5.90;95.60
7218;DHT22;3650;53.580;10.094;2022-12-07T03:08:11;5.90;95.50
7218;DHT22;3650;53.580;10.094;2022-12-07T03:10:46;5.90;95.40
7218;DHT22;3650;53.580;10.094;2022-12-07T03:13:23;5.80;95.40
7218;DHT22;3650;53.580;10.094;2022-12-07T03:15:57;5.80;95.30
7218;DHT22;3650;53.580;10.094;2022-12-07T03:18:29;5.80;95.30
7218;DHT22;3650;53.580;10.094;2022-12-07T03:21:01;5.80;95.30
7218;DHT22;3650;53.580;10.094;2022-12-07T03:23:30;5.80;95.40
7218;DHT22;3650;53.580;10.094;2022-12-07T03:26:01;5.70;95.30
7218;DHT22;3650;53.580;10.094;2022-12-07T03:28:32;5.70;95.20
7218;DHT22;3650;53.580;10.094;2022-12-07T03:31:05;5.70;95.10
7218;DHT22;3650;53.580;10.094;2022-12-07T03:33:39;5.70;95.10
7218;DHT22;3650;53.580;10.094;2022-12-07T03:36:11;5.60;95.00
7218;DHT22;3650;53.580;10.094;2022-12-07T03:38:44;5.60;95.10
7218;DHT22;3650;53.580;10.094;2022-12-07T03:41:16;5.60;95.00
7218;DHT22;3650;53.580;10.094;2022-12-07T03:43:46;5.60;94.90
7218;DHT22;3650;53.580;10.094;2022-12-07T03:46:19;5.60;94.80
7218;DHT22;3650;53.580;10.094;2022-12-07T03:48:54;5.60;94.70
7218;DHT22;3650;53.580;10.094;2022-12-07T03:51:26;5.50;94.60
7218;DHT22;3650;53.580;10.094;2022-12-07T03:53:58;5.50;94.70
7218;DHT22;3650;53.580;10.094;2022-12-07T03:56:28;5.50;94.90
7218;DHT22;3650;53.580;10.094;2022-12-07T03:58:55;5.50;95.00
7218;DHT22;3650;53.580;10.094;2022-12-07T04:01:24;5.40;94.90
7218;DHT22;3650;53.580;10.094;2022-12-07T04:03:51;5.40;94.90
7218;DHT22;3650;53.580;10.094;2022-12-07T04:06:18;5.40;95.00
7218;DHT22;3650;53.580;10.094;2022-12-07T04:08:45;5.40;94.90
7218;DHT22;3650;53.580;10.094;2022-12-07T04:11:12;5.40;94.80
7218;DHT22;3650;53.580;10.094;2022-12-07T04:13:39;5.30;94.60
7218;DHT22;3650;53.580;10.094;2022-12-07T04:16:19;5.30;94.60
7218;DHT22;3650;53.580;10.094;2022-12-07T04:18:48;5.30;94.50
7218;DHT22;3650;53.580;10.094;2022-12-07T04:21:14;5.30;94.60
7218;DHT22;3650;53.580;10.094;2022-12-07T04:23:41;5.30;94.60
7218;DHT22;3650;53.580;10.094;2022-12-07T04:26:08;5.30;94.50
7218;DHT22;3650;53.580;10.094;2022-12-07T04:28:35;5.20;94.60
7218;DHT22;3650;53.580;10.094;2022-12-07T04:31:02;5.20;94.80
7218;DHT22;3650;53.580;10.094;2022-12-07T04:33:29;5.20;94.80
7218;DHT22;3650;53.580;10.094;2022-12-07T04:35:57;5.20;94.80
7218;DHT22;3650;53.580;10.094;2022-12-07T04:38:24;5.20;94.80
7218;DHT22;3650;53.580;10.094;2022-12-07T04:40:51;5.20;94.80
7218;DHT22;3650;53.580;10.094;2022-12-07T04:43:18;5.10;94.80
7218;DHT22;3650;53.580;10.094;2022-12-07T04:45:46;5.10;94.90
7218;DHT22;3650;53.580;10.094;2022-12-07T04:48:13;5.10;94.80
7218;DHT22;3650;53.580;10.094;2022-12-07T04:50:40;5.10;94.70
7218;DHT22;3650;53.580;10.094;2022-12-07T04:53:09;5.10;94.80
7218;DHT22;3650;53.580;10.094;2022-12-07T04:55:36;5.10;95.00
7218;DHT22;3650;53.580;10.094;2022-12-07T04:58:03;5.10;94.90
7218;DHT22;3650;53.580;10.094;2022-12-07T05:00:30;5.00;94.80
7218;DHT22;3650;53.580;10.094;2022-12-07T05:02:56;5.00;95.00
7218;DHT22;3650;53.580;10.094;2022-12-07T05:05:23;5.00;95.20
7218;DHT22;3650;53.580;10.094;2022-12-07T05:07:50;5.00;95.20
7218;DHT22;3650;53.580;10.094;2022-12-07T05:10:18;5.00;95.10
7218;DHT22;3650;53.580;10.094;2022-12-07T05:12:45;5.00;95.10
7218;DHT22;3650;53.580;10.094;2022-12-07T05:15:13;5.00;95.00
7218;DHT22;3650;53.580;10.094;2022-12-07T05:17:40;5.00;95.10
7218;DHT22;3650;53.580;10.094;2022-12-07T05:20:08;5.00;95.10
7218;DHT22;3650;53.580;10.094;2022-12-07T05:22:35;5.00;95.10
7218;DHT22;3650;53.580;10.094;2022-12-07T05:25:02;4.90;95.20
7218;DHT22;3650;53.580;10.094;2022-12-07T05:27:30;5.00;95.30
7218;DHT22;3650;53.580;10.094;2022-12-07T05:29:57;5.00;95.30
7218;DHT22;3650;53.580;10.094;2022-12-07T05:32:24;5.00;95.30
7218;DHT22;3650;53.580;10.094;2022-12-07T05:34:50;5.00;95.10
7218;DHT22;3650;53.580;10.094;2022-12-07T05:37:20;5.00;95.40
7218;DHT22;3650;53.580;10.094;2022-12-07T05:39:47;4.90;95.00
7218;DHT22;3650;53.580;10.094;2022-12-07T05:42:13;4.90;95.10
7218;DHT22;3650;53.580;10.094;2022-12-07T05:44:43;4.90;94.90
7218;DHT22;3650;53.580;10.094;2022-12-07T05:47:10;4.90;94.90
7218;DHT22;3650;53.580;10.094;2022-12-07T05:49:37;4.90;94.90
7218;DHT22;3650;53.580;10.094;2022-12-07T05:52:04;4.90;94.80
7218;DHT22;3650;53.580;10.094;2022-12-07T05:54:31;4.90;94.80
7218;DHT22;3650;53.580;10.094;2022-12-07T05:56:58;4.90;95.00
7218;DHT22;3650;53.580;10.094;2022-12-07T05:59:25;4.90;95.10
7218;DHT22;3650;53.580;10.094;2022-12-07T06:01:55;4.90;95.00
7218;DHT22;3650;53.580;10.094;2022-12-07T06:04:23;4.90;95.00
7218;DHT22;3650;53.580;10.094;2022-12-07T06:06:51;4.90;94.80
7218;DHT22;3650;53.580;10.094;2022-12-07T06:09:18;4.90;94.80
7218;DHT22;3650;53.580;10.094;2022-12-07T06:11:46;4.90;94.50
7218;DHT22;3650;53.580;10.094;2022-12-07T06:14:30;4.90;94.70
7218;DHT22;3650;53.580;10.094;2022-12-07T06:16:59;4.90;94.70
7218;DHT22;3650;53.580;10.094;2022-12-07T06:19:26;4.90;95.00
7218;DHT22;3650;53.580;10.094;2022-12-07T06:21:53;4.90;95.10
7218;DHT22;3650;53.580;10.094;2022-12-07T06:24:20;4.90;95.10
7218;DHT22;3650;53.580;10.094;2022-12-07T06:26:47;4.90;95.00
7218;DHT22;3650;53.580;10.094;2022-12-07T06:29:14;4.90;94.80
7218;DHT22;3650;53.580;10.094;2022-12-07T06:31:41;4.90;94.80
7218;DHT22;3650;53.580;10.094;2022-12-07T06:34:12;4.90;94.80
7218;DHT22;3650;53.580;10.094;2022-12-07T06:36:39;5.00;94.80
7218;DHT22;3650;53.580;10.094;2022-12-07T06:39:06;5.00;94.70
7218;DHT22;3650;53.580;10.094;2022-12-07T06:41:34;5.00;94.50
7218;DHT22;3650;53.580;10.094;2022-12-07T06:44:01;5.00;94.40
7218;DHT22;3650;53.580;10.094;2022-12-07T06:46:28;5.00;94.20
7218;DHT22;3650;53.580;10.094;2022-12-07T06:48:55;5.00;94.20
7218;DHT22;3650;53.580;10.094;2022-12-07T06:51:23;5.00;94.20
7218;DHT22;3650;53.580;10.094;2022-12-07T06:53:52;5.10;94.30
7218;DHT22;3650;53.580;10.094;2022-12-07T06:56:20;5.10;94.30
7218;DHT22;3650;53.580;10.094;2022-12-07T06:58:48;5.10;94.30
7218;DHT22;3650;53.580;10.094;2022-12-07T07:01:17;5.10;94.30
7218;DHT22;3650;53.580;10.094;2022-12-07T07:03:45;5.10;94.30
7218;DHT22;3650;53.580;10.094;2022-12-07T07:06:13;5.10;94.30
7218;DHT22;3650;53.580;10.094;2022-12-07T07:08:41;5.20;94.30
7218;DHT22;3650;53.580;10.094;2022-12-07T07:11:09;5.20;94.30
7218;DHT22;3650;53.580;10.094;2022-12-07T07:13:36;5.20;94.30
7218;DHT22;3650;53.580;10.094;2022-12-07T07:16:04;5.20;94.30
7218;DHT22;3650;53.580;10.094;2022-12-07T07:18:31;5.30;94.40
7218;DHT22;3650;53.580;10.094;2022-12-07T07:20:58;5.30;94.30
7218;DHT22;3650;53.580;10.094;2022-12-07T07:23:25;5.20;93.90
7218;DHT22;3650;53.580;10.094;2022-12-07T07:25:53;5.20;94.00
7218;DHT22;3650;53.580;10.094;2022-12-07T07:28:20;5.30;94.20
7218;DHT22;3650;53.580;10.094;2022-12-07T07:30:47;5.30;94.30
7218;DHT22;3650;53.580;10.094;2022-12-07T07:33:14;5.30;94.30
7218;DHT22;3650;53.580;10.094;2022-12-07T07:35:40;5.30;94.40
7218;DHT22;3650;53.580;10.094;2022-12-07T07:38:07;5.30;94.30
7218;DHT22;3650;53.580;10.094;2022-12-07T07:40:34;5.30;94.30
7218;DHT22;3650;53.580;10.094;2022-12-07T07:43:03;5.30;94.30
7218;DHT22;3650;53.580;10.094;2022-12-07T07:45:30;5.30;94.30
7218;DHT22;3650;53.580;10.094;2022-12-07T07:47:57;5.50;94.40
7218;DHT22;3650;53.580;10.094;2022-12-07T07:50:24;5.30;94.30
7218;DHT22;3650;53.580;10.094;2022-12-07T07:52:51;5.30;94.30
7218;DHT22;3650;53.580;10.094;2022-12-07T07:55:18;5.30;94.10
7218;DHT22;3650;53.580;10.094;2022-12-07T07:57:45;5.30;94.10
7218;DHT22;3650;53.580;10.094;2022-12-07T08:00:14;5.30;94.10
7218;DHT22;3650;53.580;10.094;2022-12-07T08:02:42;5.40;94.30
7218;DHT22;3650;53.580;10.094;2022-12-07T08:05:10;5.40;94.30
7218;DHT22;3650;53.580;10.094;2022-12-07T08:07:37;5.40;94.10
7218;DHT22;3650;53.580;10.094;2022-12-07T08:10:06;5.40;93.80
7218;DHT22;3650;53.580;10.094;2022-12-07T08:12:36;5.40;93.70
7218;DHT22;3650;53.580;10.094;2022-12-07T08:15:03;5.40;93.70
7218;DHT22;3650;53.580;10.094;2022-12-07T08:17:33;5.40;93.60
7218;DHT22;3650;53.580;10.094;2022-12-07T08:19:59;5.40;93.60
7218;DHT22;3650;53.580;10.094;2022-12-07T08:22:26;5.40;93.50
7218;DHT22;3650;53.580;10.094;2022-12-07T08:24:53;5.40;93.40
7218;DHT22;3650;53.580;10.094;2022-12-07T08:27:20;5.40;93.30
7218;DHT22;3650;53.580;10.094;2022-12-07T08:29:52;5.40;93.40
7218;DHT22;3650;53.580;10.094;2022-12-07T08:32:18;5.40;93.50
7218;DHT22;3650;53.580;10.094;2022-12-07T08:34:47;5.40;93.60
7218;DHT22;3650;53.580;10.094;2022-12-07T08:37:13;5.50;93.50
7218;DHT22;3650;53.580;10.094;2022-12-07T08:39:40;5.50;93.60
7218;DHT22;3650;53.580;10.094;2022-12-07T08:42:07;5.50;94.10
7218;DHT22;3650;53.580;10.094;2022-12-07T08:44:33;5.50;93.90
7218;DHT22;3650;53.580;10.094;2022-12-07T08:47:03;5.50;93.70
7218;DHT22;3650;53.580;10.094;2022-12-07T08:49:34;5.50;93.50
7218;DHT22;3650;53.580;10.094;2022-12-07T08:52:05;5.50;93.40
7218;DHT22;3650;53.580;10.094;2022-12-07T08:54:34;5.50;93.30
7218;DHT22;3650;53.580;10.094;2022-12-07T08:57:03;5.40;93.30
7218;DHT22;3650;53.580;10.094;2022-12-07T08:59:30;5.50;93.40
7218;DHT22;3650;53.580;10.094;2022-12-07T09:01:57;5.50;93.40
7218;DHT22;3650;53.580;10.094;2022-12-07T09:04:24;5.60;93.40
7218;DHT22;3650;53.580;10.094;2022-12-07T09:06:51;5.50;93.50
7218;DHT22;3650;53.580;10.094;2022-12-07T09:09:19;5.60;93.70
7218;DHT22;3650;53.580;10.094;2022-12-07T09:11:46;5.60;93.70
7218;DHT22;3650;53.580;10.094;2022-12-07T09:14:13;5.60;93.80
7218;DHT22;3650;53.580;10.094;2022-12-07T09:16:40;5.70;94.00
7218;DHT22;3650;53.580;10.094;2022-12-07T09:19:07;5.70;94.10
7218;DHT22;3650;53.580;10.094;2022-12-07T09:21:34;5.70;94.20
7218;DHT22;3650;53.580;10.094;2022-12-07T09:24:01;5.80;94.10
7218;DHT22;3650;53.580;10.094;2022-12-07T09:26:29;5.80;94.60
7218;DHT22;3650;53.580;10.094;2022-12-07T09:28:56;5.80;94.10
7218;DHT22;3650;53.580;10.094;2022-12-07T09:31:23;5.90;94.00
7218;DHT22;3650;53.580;10.094;2022-12-07T09:33:53;5.80;93.80
7218;DHT22;3650;53.580;10.094;2022-12-07T09:36:20;5.90;93.70
7218;DHT22;3650;53.580;10.094;2022-12-07T09:38:47;5.90;93.60
7218;DHT22;3650;53.580;10.094;2022-12-07T09:41:13;5.90;93.50
7218;DHT22;3650;53.580;10.094;2022-12-07T09:43:42;5.90;93.50
7218;DHT22;3650;53.580;10.094;2022-12-07T09:46:13;5.90;93.70
7218;DHT22;3650;53.580;10.094;2022-12-07T09:48:42;6.00;93.80
7218;DHT22;3650;53.580;10.094;2022-12-07T09:51:14;6.00;93.80
7218;DHT22;3650;53.580;10.094;2022-12-07T09:53:42;6.00;93.70
7218;DHT22;3650;53.580;10.094;2022-12-07T09:56:11;6.00;93.50
7218;DHT22;3650;53.580;10.094;2022-12-07T09:58:39;6.00;93.40
7218;DHT22;3650;53.580;10.094;2022-12-07T10:01:12;6.00;93.50
7218;DHT22;3650;53.580;10.094;2022-12-07T10:03:40;6.10;93.40
7218;DHT22;3650;53.580;10.094;2022-12-07T10:06:11;6.10;93.30
7218;DHT22;3650;53.580;10.094;2022-12-07T10:08:39;6.10;93.40
7218;DHT22;3650;53.580;10.094;2022-12-07T10:11:07;6.10;93.30
7218;DHT22;3650;53.580;10.094;2022-12-07T10:13:37;6.10;93.10
7218;DHT22;3650;53.580;10.094;2022-12-07T10:16:06;6.10;92.90
7218;DHT22;3650;53.580;10.094;2022-12-07T10:18:52;6.10;92.80
7218;DHT22;3650;53.580;10.094;2022-12-07T10:21:20;6.10;92.80
7218;DHT22;3650;53.580;10.094;2022-12-07T10:24:02;6.20;92.50
7218;DHT22;3650;53.580;10.094;2022-12-07T10:26:32;6.20;92.20
7218;DHT22;3650;53.580;10.094;2022-12-07T10:29:02;6.10;92.10
7218;DHT22;3650;53.580;10.094;2022-12-07T10:31:40;6.20;92.10
7218;DHT22;3650;53.580;10.094;2022-12-07T10:34:21;6.20;91.80
7218;DHT22;3650;53.580;10.094;2022-12-07T10:36:49;6.20;91.60
7218;DHT22;3650;53.580;10.094;2022-12-07T10:39:18;6.20;91.50
7218;DHT22;3650;53.580;10.094;2022-12-07T10:41:56;6.20;91.40
7218;DHT22;3650;53.580;10.094;2022-12-07T10:44:24;6.20;91.30
7218;DHT22;3650;53.580;10.094;2022-12-07T10:47:23;6.20;91.10
7218;DHT22;3650;53.580;10.094;2022-12-07T10:50:24;6.20;91.10
7218;DHT22;3650;53.580;10.094;2022-12-07T10:56:14;6.20;91.10
7218;DHT22;3650;53.580;10.094;2022-12-07T10:58:56;6.20;91.10
7218;DHT22;3650;53.580;10.094;2022-12-07T11:01:31;6.20;91.10
7218;DHT22;3650;53.580;10.094;2022-12-07T11:04:24;6.20;91.40
7218;DHT22;3650;53.580;10.094;2022-12-07T11:07:03;6.20;91.40
7218;DHT22;3650;53.580;10.094;2022-12-07T11:09:48;6.20;91.30
7218;DHT22;3650;53.580;10.094;2022-12-07T11:12:24;6.20;91.10
7218;DHT22;3650;53.580;10.094;2022-12-07T11:14:57;6.20;91.10
7218;DHT22;3650;53.580;10.094;2022-12-07T11:17:32;6.20;91.10
7218;DHT22;3650;53.580;10.094;2022-12-07T11:20:12;6.20;91.10
7218;DHT22;3650;53.580;10.094;2022-12-07T11:22:49;6.20;91.10
7218;DHT22;3650;53.580;10.094;2022-12-07T11:25:24;6.20;90.90
7218;DHT22;3650;53.580;10.094;2022-12-07T11:28:07;6.20;90.80
7218;DHT22;3650;53.580;10.094;2022-12-07T11:30:44;6.20;90.80
7218;DHT22;3650;53.580;10.094;2022-12-07T11:33:20;6.30;91.10
7218;DHT22;3650;53.580;10.094;2022-12-07T11:36:01;6.30;91.10
7218;DHT22;3650;53.580;10.094;2022-12-07T11:38:37;6.30;90.60
7218;DHT22;3650;53.580;10.094;2022-12-07T11:41:08;6.20;90.00
7218;DHT22;3650;53.580;10.094;2022-12-07T11:43:53;6.30;90.20
7218;DHT22;3650;53.580;10.094;2022-12-07T11:46:24;6.30;90.20
7218;DHT22;3650;53.580;10.094;2022-12-07T11:48:57;6.30;90.10
7218;DHT22;3650;53.580;10.094;2022-12-07T11:51:29;6.30;90.10
7218;DHT22;3650;53.580;10.094;2022-12-07T11:54:02;6.40;90.10
7218;DHT22;3650;53.580;10.094;2022-12-07T11:56:30;6.40;88.90
7218;DHT22;3650;53.580;10.094;2022-12-07T11:59:08;6.30;87.50
7218;DHT22;3650;53.580;10.094;2022-12-07T12:01:44;6.40;87.30
7218;DHT22;3650;53.580;10.094;2022-12-07T12:04:25;6.40;86.30
7218;DHT22;3650;53.580;10.094;2022-12-07T12:06:55;6.40;85.90
7218;DHT22;3650;53.580;10.094;2022-12-07T12:09:26;6.30;84.50
7218;DHT22;3650;53.580;10.094;2022-12-07T12:12:14;6.40;84.60
7218;DHT22;3650;53.580;10.094;2022-12-07T12:14:48;6.40;84.80
7218;DHT22;3650;53.580;10.094;2022-12-07T12:17:37;6.40;83.30
7218;DHT22;3650;53.580;10.094;2022-12-07T12:20:19;6.40;83.00
7218;DHT22;3650;53.580;10.094;2022-12-07T12:22:52;6.50;81.50
7218;DHT22;3650;53.580;10.094;2022-12-07T12:25:22;6.40;81.00
7218;DHT22;3650;53.580;10.094;2022-12-07T12:27:52;6.40;80.20
7218;DHT22;3650;53.580;10.094;2022-12-07T12:30:32;6.30;79.60
7218;DHT22;3650;53.580;10.094;2022-12-07T12:33:05;6.40;79.60
7218;DHT22;3650;53.580;10.094;2022-12-07T12:35:38;6.40;77.70
7218;DHT22;3650;53.580;10.094;2022-12-07T12:38:30;6.30;77.10
7218;DHT22;3650;53.580;10.094;2022-12-07T12:40:57;6.40;75.90
7218;DHT22;3650;53.580;10.094;2022-12-07T12:43:50;6.40;76.30
7218;DHT22;3650;53.580;10.094;2022-12-07T12:46:49;6.30;75.60
7218;DHT22;3650;53.580;10.094;2022-12-07T12:49:35;6.40;75.40
7218;DHT22;3650;53.580;10.094;2022-12-07T12:55:49;6.30;74.80
7218;DHT22;3650;53.580;10.094;2022-12-07T12:58:32;6.40;75.80
7218;DHT22;3650;53.580;10.094;2022-12-07T13:04:39;6.30;73.70
7218;DHT22;3650;53.580;10.094;2022-12-07T13:07:51;6.40;72.00
7218;DHT22;3650;53.580;10.094;2022-12-07T13:10:35;6.40;72.00
7218;DHT22;3650;53.580;10.094;2022-12-07T13:13:31;6.40;70.20
7218;DHT22;3650;53.580;10.094;2022-12-07T13:16:39;6.40;70.70
7218;DHT22;3650;53.580;10.094;2022-12-07T13:22:58;6.40;70.60
7218;DHT22;3650;53.580;10.094;2022-12-07T13:25:38;6.40;64.80
7218;DHT22;3650;53.580;10.094;2022-12-07T13:28:15;6.30;62.80
7218;DHT22;3650;53.580;10.094;2022-12-07T13:30:47;6.30;63.90
7218;DHT22;3650;53.580;10.094;2022-12-07T13:33:17;6.30;61.20
7218;DHT22;3650;53.580;10.094;2022-12-07T13:35:45;6.30;60.80
7218;DHT22;3650;53.580;10.094;2022-12-07T13:38:27;6.30;61.10
7218;DHT22;3650;53.580;10.094;2022-12-07T13:41:02;6.30;60.10
7218;DHT22;3650;53.580;10.094;2022-12-07T13:43:31;6.30;60.10
7218;DHT22;3650;53.580;10.094;2022-12-07T13:45:58;6.30;59.60
7218;DHT22;3650;53.580;10.094;2022-12-07T13:48:30;6.30;58.70
7218;DHT22;3650;53.580;10.094;2022-12-07T13:50:58;6.30;58.10
7218;DHT22;3650;53.580;10.094;2022-12-07T13:53:27;6.30;57.20
7218;DHT22;3650;53.580;10.094;2022-12-07T13:55:56;6.20;57.00
7218;DHT22;3650;53.580;10.094;2022-12-07T13:58:33;6.20;57.30
7218;DHT22;3650;53.580;10.094;2022-12-07T14:01:02;6.20;57.20
7218;DHT22;3650;53.580;10.094;2022-12-07T14:03:31;6.20;57.50
7218;DHT22;3650;53.580;10.094;2022-12-07T14:06:15;6.20;57.10
7218;DHT22;3650;53.580;10.094;2022-12-07T14:08:44;6.20;56.80
7218;DHT22;3650;53.580;10.094;2022-12-07T14:11:14;6.10;56.30
7218;DHT22;3650;53.580;10.094;2022-12-07T14:13:51;6.10;56.10
7218;DHT22;3650;53.580;10.094;2022-12-07T14:16:27;6.10;57.00
7218;DHT22;3650;53.580;10.094;2022-12-07T14:18:55;6.10;56.50
7218;DHT22;3650;53.580;10.094;2022-12-07T14:21:23;6.10;56.00
7218;DHT22;3650;53.580;10.094;2022-12-07T14:24:14;6.10;55.90
7218;DHT22;3650;53.580;10.094;2022-12-07T14:26:43;6.10;56.10
7218;DHT22;3650;53.580;10.094;2022-12-07T14:29:22;6.10;55.10
7218;DHT22;3650;53.580;10.094;2022-12-07T14:31:51;6.10;53.00
7218;DHT22;3650;53.580;10.094;2022-12-07T14:34:20;6.10;52.20
7218;DHT22;3650;53.580;10.094;2022-12-07T14:36:46;6.00;53.10
7218;DHT22;3650;53.580;10.094;2022-12-07T14:39:13;6.00;52.50
7218;DHT22;3650;53.580;10.094;2022-12-07T14:41:40;6.00;51.80
7218;DHT22;3650;53.580;10.094;2022-12-07T14:44:20;6.00;51.20
7218;DHT22;3650;53.580;10.094;2022-12-07T14:46:49;6.00;51.20
7218;DHT22;3650;53.580;10.094;2022-12-07T14:49:16;6.00;51.60
7218;DHT22;3650;53.580;10.094;2022-12-07T14:51:45;6.00;51.10
7218;DHT22;3650;53.580;10.094;2022-12-07T14:54:16;5.90;51.30
7218;DHT22;3650;53.580;10.094;2022-12-07T14:56:44;5.90;51.30
7218;DHT22;3650;53.580;10.094;2022-12-07T14:59:11;5.90;51.60
7218;DHT22;3650;53.580;10.094;2022-12-07T15:01:39;5.90;52.40
7218;DHT22;3650;53.580;10.094;2022-12-07T15:04:07;5.90;51.90
7218;DHT22;3650;53.580;10.094;2022-12-07T15:06:34;5.90;52.00
7218;DHT22;3650;53.580;10.094;2022-12-07T15:09:01;5.90;51.90
7218;DHT22;3650;53.580;10.094;2022-12-07T15:11:27;5.80;51.90
7218;DHT22;3650;53.580;10.094;2022-12-07T15:13:54;5.80;51.40
7218;DHT22;3650;53.580;10.094;2022-12-07T15:16:40;5.80;51.20
7218;DHT22;3650;53.580;10.094;2022-12-07T15:19:12;5.80;51.60
7218;DHT22;3650;53.580;10.094;2022-12-07T15:21:40;5.70;51.40
7218;DHT22;3650;53.580;10.094;2022-12-07T15:24:08;5.70;51.70
7218;DHT22;3650;53.580;10.094;2022-12-07T15:26:35;5.70;51.90
7218;DHT22;3650;53.580;10.094;2022-12-07T15:29:02;5.70;51.70
7218;DHT22;3650;53.580;10.094;2022-12-07T15:31:29;5.70;51.80
7218;DHT22;3650;53.580;10.094;2022-12-07T15:33:56;5.60;51.80
7218;DHT22;3650;53.580;10.094;2022-12-07T15:36:26;5.60;52.80
7218;DHT22;3650;53.580;10.094;2022-12-07T15:38:54;5.60;53.40
7218;DHT22;3650;53.580;10.094;2022-12-07T15:41:21;5.60;53.50
7218;DHT22;3650;53.580;10.094;2022-12-07T15:43:48;5.50;53.40
7218;DHT22;3650;53.580;10.094;2022-12-07T15:46:33;5.50;53.30
7218;DHT22;3650;53.580;10.094;2022-12-07T15:49:00;5.50;52.50
7218;DHT22;3650;53.580;10.094;2022-12-07T15:51:29;5.50;53.10
7218;DHT22;3650;53.580;10.094;2022-12-07T15:53:57;5.40;52.80
7218;DHT22;3650;53.580;10.094;2022-12-07T15:56:24;5.40;52.60
7218;DHT22;3650;53.580;10.094;2022-12-07T15:58:51;5.40;52.30
7218;DHT22;3650;53.580;10.094;2022-12-07T16:01:19;5.40;52.30
7218;DHT22;3650;53.580;10.094;2022-12-07T16:03:46;5.40;52.40
7218;DHT22;3650;53.580;10.094;2022-12-07T16:06:15;5.40;52.30
7218;DHT22;3650;53.580;10.094;2022-12-07T16:08:44;5.40;52.30
7218;DHT22;3650;53.580;10.094;2022-12-07T16:11:12;5.40;52.40
7218;DHT22;3650;53.580;10.094;2022-12-07T16:13:38;5.40;51.80
7218;DHT22;3650;53.580;10.094;2022-12-07T16:16:08;5.40;51.60
7218;DHT22;3650;53.580;10.094;2022-12-07T16:18:36;5.40;52.00
7218;DHT22;3650;53.580;10.094;2022-12-07T16:21:03;5.40;52.00
7218;DHT22;3650;53.580;10.094;2022-12-07T16:23:30;5.40;51.80
7218;DHT22;3650;53.580;10.094;2022-12-07T16:26:05;5.30;51.60
7218;DHT22;3650;53.580;10.094;2022-12-07T16:28:32;5.30;51.50
7218;DHT22;3650;53.580;10.094;2022-12-07T16:31:03;5.30;51.30
7218;DHT22;3650;53.580;10.094;2022-12-07T16:33:30;5.30;51.20
7218;DHT22;3650;53.580;10.094;2022-12-07T16:35:58;5.30;51.60
7218;DHT22;3650;53.580;10.094;2022-12-07T16:38:26;5.30;51.40